KMBS/MBS METAR and TAF weather

Enter ICAO airport designator
Station Type Date Time Source
KMBS METAR 2019/08/18 08:53 UTC NOAA

KMBS 180853Z AUTO 20006KT 10SM CLR 20/18 A2987 RMK AO2 SLP112 60000 T02000183 56014


Station Type Date Time Source
KMBS Decoded METAR 2019/08/18 08:53 UTC NOAA

Station name not available
Aug 18, 2019 - 04:53 AM EDT / 2019.08.18 0853 UTC
Wind: from the SSW (200 degrees) at 7 MPH (6 KT):0
Visibility: 10 mile(s):0
Sky conditions: clear
Temperature: 68.0 F (20.0 C)
Dew Point: 64.9 F (18.3 C)
Relative Humidity: 89%
Pressure (altimeter): 29.87 in. Hg (1011 hPa)
Pressure tendency: 0.04 inches (1.4 hPa) lower than three hours ago
ob: KMBS 180853Z AUTO 20006KT 10SM CLR 20/18 A2987 RMK AO2 SLP112 60000 T02000183 56014
cycle: 9

Station Type Date Time Source
KMBS TAF 2019/08/18 06:28 UTC NOAA

TAF KMBS 180526Z 1806/1906 22004KT P6SM BKN050 BKN100
FM180900 20004KT P6SM SCT030
FM181400 22008KT P6SM SCT025 BKN050
FM182000 21011G18KT P6SM BKN040
TEMPO 1820/1824 2SM TSRA OVC025CB
FM190300 26008KT P6SM BKN020

Example: see airport list